<?xml version="1.0" encoding="UTF-8" standalone="no" ?>
<gpx xmlns="http://www.topografix.com/GPX/1/1" xmlns:xsi="http://www.w3.org/2001/XMLSchema-instance" xsi:schemaLocation="http://www.topografix.com/GPX/1/1 http://www.topografix.com/GPX/1/1/gpx.xsd" version="1.1" creator="VisuGPX - https://www.visugpx.com">
  <metadata>
    <name>luzech 6 descentes</name>
    <desc><![CDATA[parcours typé enduro avec de belles descentes]]></desc>
  </metadata>
  <trk>
    <name><![CDATA[2014-04-01-08-18-57]]></name>
    <trkseg>
      <trkpt lat="44.44917" lon="1.30022">
        <ele>126.336</ele>
        <time>2014-04-01T12:23:38Z</time>
      </trkpt>
      <trkpt lat="44.44902" lon="1.29981">
        <ele>126.007</ele>
        <time>2014-04-01T12:23:47Z</time>
      </trkpt>
      <trkpt lat="44.44882" lon="1.2994">
        <ele>125.366</ele>
        <time>2014-04-01T12:23:56Z</time>
      </trkpt>
      <trkpt lat="44.44856" lon="1.29907">
        <ele>126.266</ele>
        <time>2014-04-01T12:24:05Z</time>
      </trkpt>
      <trkpt lat="44.44834" lon="1.29885">
        <ele>127.237</ele>
        <time>2014-04-01T12:24:12Z</time>
      </trkpt>
      <trkpt lat="44.44808" lon="1.29862">
        <ele>129.216</ele>
        <time>2014-04-01T12:24:20Z</time>
      </trkpt>
      <trkpt lat="44.44783" lon="1.29838">
        <ele>130.615</ele>
        <time>2014-04-01T12:24:28Z</time>
      </trkpt>
      <trkpt lat="44.44774" lon="1.2983">
        <ele>130.957</ele>
        <time>2014-04-01T12:24:32Z</time>
      </trkpt>
      <trkpt lat="44.44776" lon="1.29822">
        <ele>131.075</ele>
        <time>2014-04-01T12:24:37Z</time>
      </trkpt>
      <trkpt lat="44.44789" lon="1.29816">
        <ele>132.775</ele>
        <time>2014-04-01T12:24:41Z</time>
      </trkpt>
      <trkpt lat="44.44807" lon="1.29806">
        <ele>129.885</ele>
        <time>2014-04-01T12:24:46Z</time>
      </trkpt>
      <trkpt lat="44.44815" lon="1.29806">
        <ele>129.294</ele>
        <time>2014-04-01T12:24:49Z</time>
      </trkpt>
      <trkpt lat="44.44827" lon="1.29806">
        <ele>129.525</ele>
        <time>2014-04-01T12:24:53Z</time>
      </trkpt>
      <trkpt lat="44.4484" lon="1.29806">
        <ele>127.914</ele>
        <time>2014-04-01T12:24:56Z</time>
      </trkpt>
      <trkpt lat="44.44856" lon="1.29815">
        <ele>125.854</ele>
        <time>2014-04-01T12:25:00Z</time>
      </trkpt>
      <trkpt lat="44.44874" lon="1.29831">
        <ele>124.293</ele>
        <time>2014-04-01T12:25:04Z</time>
      </trkpt>
      <trkpt lat="44.44885" lon="1.29839">
        <ele>123.773</ele>
        <time>2014-04-01T12:25:07Z</time>
      </trkpt>
      <trkpt lat="44.4491" lon="1.29869">
        <ele>125.144</ele>
        <time>2014-04-01T12:25:14Z</time>
      </trkpt>
      <trkpt lat="44.44914" lon="1.29874">
        <ele>125.494</ele>
        <time>2014-04-01T12:25:15Z</time>
      </trkpt>
    </trkseg>
  </trk>
</gpx>